Terminal Aerodrome Forecast
Issued by NWS

Home | Current Version | Previous Version | Text Only | Print | Product List | Glossary On
Versions: 1 2 3 4 5 6 7 8 9 10 11 12 13 14 15 16 17 18 19 20 21
000
FTUS44 KTSA 220500
TAFRVS
TAF
KRVS 220520Z 2206/2306 00000KT P6SM SCT250
     FM221500 16008KT P6SM VCSH OVC025
      TEMPO 2216/2220 6SM -TSRA OVC015CB
     FM222000 14007KT 6SM -TSRA OVC015CB
     FM230100 14005KT P6SM VCSH OVC015=

USA.gov is the U.S. government's official web portal to all federal, state and local government web resources and services.